createdAt,value
2022-11-10T00:01:09.210Z,1.00
2022-11-10T00:03:37.667Z,1.60
2022-11-10T00:06:06.206Z,4.70
2022-11-10T00:08:33.734Z,7.30
2022-11-10T00:11:06.500Z,12.90
2022-11-10T00:13:36.161Z,14.70
2022-11-10T00:16:24.114Z,18.60
2022-11-10T00:18:51.134Z,18.30
2022-11-10T00:21:18.628Z,27.30
2022-11-10T00:23:47.642Z,30.70
2022-11-10T00:26:19.435Z,35.40
2022-11-10T00:28:46.362Z,37.10
2022-11-10T00:31:13.792Z,36.40
2022-11-10T00:33:43.355Z,40.50
2022-11-10T00:36:11.518Z,35.80
2022-11-10T00:38:38.664Z,31.20
2022-11-10T00:41:05.804Z,30.70
2022-11-10T00:43:33.213Z,30.50
2022-11-10T00:46:00.398Z,31.80
2022-11-10T00:48:27.240Z,40.90
2022-11-10T00:50:54.138Z,50.10
2022-11-10T00:53:21.374Z,56.90
2022-11-10T00:55:49.137Z,54.30
2022-11-10T00:58:16.183Z,58.70
2022-11-10T01:00:43.170Z,57.80
2022-11-10T01:03:17.133Z,78.20
2022-11-10T01:05:44.716Z,94.30
2022-11-10T01:08:11.676Z,99.90
2022-11-10T01:10:38.518Z,99.90
2022-11-10T01:13:05.446Z,99.90
2022-11-10T01:15:32.260Z,99.90
2022-11-10T01:17:59.070Z,99.90
2022-11-10T01:20:25.998Z,99.90
2022-11-10T01:22:52.871Z,99.90
2022-11-10T01:25:19.843Z,99.90
2022-11-10T01:27:46.772Z,99.90
2022-11-10T01:30:13.845Z,99.90
2022-11-10T01:32:40.679Z,99.90
2022-11-10T01:35:08.680Z,99.90
2022-11-10T01:37:35.738Z,99.90
2022-11-10T01:40:03.893Z,99.90
2022-11-10T01:42:52.558Z,99.90
2022-11-10T01:45:25.264Z,99.90
2022-11-10T01:47:57.941Z,99.90
2022-11-10T01:50:27.632Z,99.90
2022-11-10T01:52:57.832Z,99.90
2022-11-10T01:55:26.095Z,99.90
2022-11-10T01:57:53.407Z,99.90
2022-11-10T02:00:20.944Z,99.90
2022-11-10T02:02:50.863Z,99.90
2022-11-10T02:05:18.141Z,99.90
2022-11-10T02:07:45.969Z,99.90
2022-11-10T02:10:18.709Z,99.90
2022-11-10T02:12:46.608Z,99.90
2022-11-10T02:15:16.578Z,99.90
2022-11-10T02:17:45.582Z,99.90
2022-11-10T02:20:14.699Z,99.90
2022-11-10T02:22:41.635Z,99.90
2022-11-10T02:25:08.911Z,99.90
2022-11-10T02:27:35.697Z,99.90
2022-11-10T02:30:03.083Z,99.90
2022-11-10T02:32:29.873Z,99.90
2022-11-10T02:34:56.708Z,99.90
2022-11-10T02:37:23.499Z,99.90
2022-11-10T02:39:50.332Z,99.90
2022-11-10T02:42:17.154Z,99.90
2022-11-10T02:44:44.056Z,99.90
2022-11-10T02:47:10.886Z,99.90
2022-11-10T02:49:37.764Z,99.90
2022-11-10T02:52:04.717Z,99.90
2022-11-10T02:54:31.565Z,99.90
2022-11-10T02:56:58.430Z,99.90
2022-11-10T02:59:25.254Z,99.90
2022-11-10T03:01:52.086Z,99.90
2022-11-10T03:04:18.865Z,99.90
2022-11-10T03:06:46.237Z,99.90
2022-11-10T03:09:13.120Z,99.90
2022-11-10T03:11:39.937Z,99.90
2022-11-10T03:14:06.758Z,99.90
2022-11-10T03:16:33.561Z,99.90
2022-11-10T03:19:00.388Z,99.90
2022-11-10T03:21:27.182Z,99.90
2022-11-10T03:23:54.000Z,99.90
2022-11-10T03:26:22.192Z,99.90
2022-11-10T03:28:48.968Z,99.90
2022-11-10T03:31:15.763Z,99.90
2022-11-10T03:33:42.564Z,99.90
2022-11-10T03:36:09.451Z,99.90
2022-11-10T03:38:36.273Z,99.90
2022-11-10T03:41:20.069Z,99.90
2022-11-10T03:43:48.259Z,99.90
2022-11-10T03:46:15.813Z,99.90
2022-11-10T03:48:42.622Z,99.90
2022-11-10T03:51:09.472Z,99.90
2022-11-10T03:53:36.482Z,99.90
2022-11-10T03:56:05.100Z,99.90
2022-11-10T03:58:32.221Z,99.90
2022-11-10T04:00:59.113Z,99.90
2022-11-10T04:03:26.249Z,99.90
2022-11-10T04:06:11.817Z,99.90
2022-11-10T04:08:57.409Z,99.90
2022-11-10T04:11:42.871Z,99.90
2022-11-10T04:14:28.501Z,99.90
2022-11-10T04:16:55.316Z,99.90
2022-11-10T04:19:22.471Z,99.90
2022-11-10T04:21:49.279Z,99.90
2022-11-10T04:24:16.348Z,99.90
2022-11-10T04:26:44.787Z,99.90
2022-11-10T04:29:12.376Z,99.90
2022-11-10T04:31:41.234Z,99.90
2022-11-10T04:34:10.602Z,99.90
2022-11-10T04:36:39.317Z,99.90
2022-11-10T04:39:07.128Z,99.90
2022-11-10T04:41:34.487Z,99.90
2022-11-10T04:44:02.423Z,99.90
2022-11-10T04:46:37.888Z,99.90
2022-11-10T04:49:06.095Z,99.90
2022-11-10T04:51:36.033Z,99.90
2022-11-10T04:54:03.303Z,99.90
2022-11-10T04:56:30.167Z,99.90
2022-11-10T04:58:57.431Z,99.90
2022-11-10T05:01:26.901Z,99.90
2022-11-10T05:03:54.843Z,99.90
2022-11-10T05:06:22.376Z,99.90
2022-11-10T05:08:49.266Z,99.90
2022-11-10T05:11:16.581Z,99.90
2022-11-10T05:13:44.412Z,99.90
2022-11-10T05:16:12.009Z,99.90
2022-11-10T05:18:39.199Z,99.90
2022-11-10T05:21:06.238Z,99.90
2022-11-10T05:23:38.996Z,99.90
2022-11-10T05:26:14.434Z,99.90
2022-11-10T05:28:43.634Z,99.90
2022-11-10T05:31:11.449Z,99.90
2022-11-10T05:33:39.133Z,99.90
2022-11-10T05:36:07.012Z,99.90
2022-11-10T05:38:35.656Z,99.90
2022-11-10T05:41:05.888Z,99.90
2022-11-10T05:43:32.688Z,99.90
2022-11-10T05:45:59.748Z,99.90
2022-11-10T05:48:26.558Z,99.90
2022-11-10T05:50:53.416Z,99.90
2022-11-10T05:53:20.514Z,99.90
2022-11-10T05:55:47.654Z,99.90
2022-11-10T05:58:14.556Z,99.90
2022-11-10T06:00:41.581Z,99.90
2022-11-10T06:03:19.317Z,99.90
2022-11-10T06:05:46.365Z,99.90
2022-11-10T06:08:13.375Z,99.90
2022-11-10T06:10:40.731Z,99.90
2022-11-10T06:13:07.672Z,99.90
2022-11-10T06:15:34.709Z,99.90
2022-11-10T06:18:01.554Z,99.90
2022-11-10T06:20:29.054Z,99.90
2022-11-10T06:23:00.079Z,99.90
2022-11-10T06:25:28.393Z,99.90
2022-11-10T06:27:55.608Z,99.90
2022-11-10T06:30:22.617Z,99.90
2022-11-10T06:32:49.875Z,99.90
2022-11-10T06:35:18.005Z,99.90
2022-11-10T06:37:44.833Z,99.90
2022-11-10T06:40:14.044Z,99.90
2022-11-10T06:42:41.028Z,99.90
2022-11-10T06:45:08.301Z,99.90
2022-11-10T06:47:35.168Z,99.90
2022-11-10T06:50:02.006Z,99.90
2022-11-10T06:52:28.930Z,99.90
2022-11-10T06:54:55.840Z,99.90
2022-11-10T06:57:22.794Z,99.90
2022-11-10T06:59:49.624Z,99.90
2022-11-10T07:02:25.835Z,99.90
2022-11-10T07:04:52.653Z,99.90
2022-11-10T07:07:19.477Z,99.90
2022-11-10T07:09:46.402Z,99.90
2022-11-10T07:12:13.234Z,99.90
2022-11-10T07:14:40.096Z,99.90
2022-11-10T07:17:06.988Z,99.90
2022-11-10T07:19:33.848Z,99.90
2022-11-10T07:22:00.681Z,99.90
2022-11-10T07:24:30.341Z,99.90
2022-11-10T07:27:00.557Z,99.90
2022-11-10T07:29:27.413Z,99.90
2022-11-10T07:31:54.296Z,99.90
2022-11-10T07:34:21.244Z,99.90
2022-11-10T07:36:48.305Z,99.90
2022-11-10T07:39:15.237Z,99.90
2022-11-10T07:41:42.060Z,99.90
2022-11-10T07:44:08.943Z,99.90
2022-11-10T07:46:35.814Z,99.90
2022-11-10T07:49:02.683Z,99.90
2022-11-10T07:51:30.867Z,99.90
2022-11-10T07:53:57.718Z,99.90
2022-11-10T07:56:24.677Z,99.90
2022-11-10T07:58:51.510Z,99.90
2022-11-10T08:01:18.394Z,99.90
2022-11-10T08:03:45.285Z,99.90
2022-11-10T08:06:12.122Z,99.90
2022-11-10T08:08:39.016Z,99.90
2022-11-10T08:11:06.308Z,99.90
2022-11-10T08:13:33.245Z,99.90
2022-11-10T08:16:00.191Z,99.90
2022-11-10T08:18:32.330Z,99.90
2022-11-10T08:21:03.110Z,99.90
2022-11-10T08:23:30.023Z,99.90
2022-11-10T08:26:01.158Z,1.00
2022-11-10T08:28:28.459Z,99.90
2022-11-10T08:30:55.702Z,99.90
2022-11-10T08:33:22.930Z,1.00
2022-11-10T08:35:51.928Z,1.00
2022-11-10T08:38:21.177Z,1.00
2022-11-10T08:40:48.191Z,99.90
2022-11-10T08:43:16.379Z,99.90
2022-11-10T08:45:44.847Z,99.90
2022-11-10T08:48:18.613Z,99.90
2022-11-10T08:50:47.038Z,99.90
2022-11-10T08:53:20.528Z,99.90
2022-11-10T08:55:48.318Z,99.90
2022-11-10T08:58:17.647Z,99.90
2022-11-10T09:00:45.051Z,99.90
2022-11-10T09:03:17.194Z,99.90
2022-11-10T09:05:44.474Z,99.90
2022-11-10T09:08:11.969Z,99.90
2022-11-10T09:10:41.910Z,99.90
2022-11-10T09:13:10.334Z,99.90
2022-11-10T09:15:38.087Z,99.90
2022-11-10T09:18:06.424Z,99.90
2022-11-10T09:20:36.108Z,99.90
2022-11-10T09:23:17.361Z,99.90
2022-11-10T09:25:49.769Z,99.90
2022-11-10T09:28:17.382Z,99.90
2022-11-10T09:30:46.814Z,99.90
2022-11-10T09:33:13.929Z,99.90
2022-11-10T09:35:41.105Z,99.90
2022-11-10T09:38:08.174Z,99.90
2022-11-10T09:41:01.036Z,99.90
2022-11-10T09:43:48.172Z,99.90
2022-11-10T09:46:24.547Z,99.90
2022-11-10T09:48:56.271Z,99.90
2022-11-10T09:51:26.671Z,99.90
2022-11-10T09:53:58.660Z,99.90
2022-11-10T09:56:34.084Z,99.90
2022-11-10T09:59:03.217Z,99.90
2022-11-10T10:02:09.993Z,99.90
2022-11-10T10:05:10.435Z,1.00
2022-11-10T10:07:49.167Z,99.90
2022-11-10T10:10:26.037Z,1.00
2022-11-10T10:13:03.369Z,99.90
2022-11-10T10:15:39.252Z,99.90
2022-11-10T10:18:34.036Z,1.00
2022-11-10T10:21:19.429Z,99.90
2022-11-10T10:24:19.775Z,1.00
2022-11-10T10:26:53.539Z,99.90
2022-11-10T10:29:24.116Z,1.00
2022-11-10T10:31:52.962Z,1.00
2022-11-10T10:34:29.020Z,99.90
2022-11-10T10:36:56.600Z,1.00
2022-11-10T10:39:38.384Z,1.00
2022-11-10T10:42:15.563Z,1.00
2022-11-10T10:45:17.492Z,99.90
2022-11-10T10:47:46.699Z,99.90
2022-11-10T10:50:22.463Z,1.00
2022-11-10T10:53:13.098Z,1.00
2022-11-10T10:55:52.813Z,99.90
2022-11-10T10:58:33.849Z,99.90
2022-11-10T11:01:19.098Z,99.90
2022-11-10T11:03:48.749Z,99.90
2022-11-10T11:06:18.331Z,99.90
2022-11-10T11:09:16.065Z,99.90
2022-11-10T11:11:45.707Z,99.90
2022-11-10T11:14:23.459Z,99.90
2022-11-10T11:16:53.304Z,18.40
2022-11-10T11:19:23.804Z,99.90
2022-11-10T11:22:16.578Z,1.00
2022-11-10T11:24:55.695Z,1.00
2022-11-10T11:27:23.151Z,1.00
2022-11-10T11:30:14.196Z,1.00
2022-11-10T11:32:59.060Z,1.00
2022-11-10T11:35:44.359Z,1.00
2022-11-10T11:38:13.169Z,1.00
2022-11-10T11:40:59.163Z,1.00
2022-11-10T11:43:47.678Z,1.00
2022-11-10T11:46:26.485Z,1.00
2022-11-10T11:49:16.272Z,1.00
2022-11-10T11:51:50.854Z,1.00
2022-11-10T11:54:35.811Z,99.90
2022-11-10T11:57:39.679Z,99.90
2022-11-10T12:00:18.471Z,99.90
2022-11-10T12:02:58.597Z,99.90
2022-11-10T12:05:44.040Z,99.90
2022-11-10T12:08:38.396Z,99.90
2022-11-10T12:11:25.520Z,99.90
2022-11-10T12:14:13.593Z,99.90
2022-11-10T12:16:47.386Z,99.90
2022-11-10T12:19:35.224Z,99.90
2022-11-10T12:22:07.032Z,99.90
2022-11-10T12:24:46.694Z,99.90
2022-11-10T12:27:24.426Z,99.90
2022-11-10T12:29:58.299Z,99.90
2022-11-10T12:32:25.117Z,99.90
2022-11-10T12:35:03.013Z,1.00
2022-11-10T12:37:57.927Z,1.00
2022-11-10T12:40:42.321Z,1.00
2022-11-10T12:43:18.705Z,1.00
2022-11-10T12:45:57.156Z,1.00
2022-11-10T12:48:25.732Z,1.00
2022-11-10T12:50:58.733Z,1.00
2022-11-10T12:53:31.809Z,1.00
2022-11-10T12:56:03.843Z,1.00
2022-11-10T12:58:30.953Z,1.00
2022-11-10T13:01:07.405Z,1.00
2022-11-10T13:03:37.271Z,1.00
2022-11-10T13:06:26.114Z,1.00
2022-11-10T13:08:53.373Z,99.90
2022-11-10T13:11:37.274Z,99.90
2022-11-10T13:14:19.364Z,1.00
2022-11-10T13:16:49.652Z,1.00
2022-11-10T13:19:28.578Z,99.90
2022-11-10T13:22:01.591Z,1.00
2022-11-10T13:24:33.569Z,1.00
2022-11-10T13:27:13.064Z,24.40
2022-11-10T13:29:42.868Z,99.90
2022-11-10T13:32:15.870Z,1.00
2022-11-10T13:34:44.584Z,1.00
2022-11-10T13:37:29.754Z,1.00
2022-11-10T13:40:18.455Z,99.90
2022-11-10T13:43:14.256Z,17.70
2022-11-10T13:45:43.468Z,3.70
2022-11-10T13:48:13.059Z,99.90
2022-11-10T13:50:57.937Z,99.90
2022-11-10T13:53:40.142Z,99.90
2022-11-10T13:56:45.004Z,99.90
2022-11-10T13:59:33.383Z,99.90
2022-11-10T14:02:34.272Z,84.70
2022-11-10T14:05:02.288Z,1.00
2022-11-10T14:07:38.518Z,1.00
2022-11-10T14:10:13.022Z,1.00
2022-11-10T14:12:46.307Z,99.90
2022-11-10T14:15:40.658Z,1.00
2022-11-10T14:18:25.108Z,35.90
2022-11-10T14:20:58.836Z,62.00
2022-11-10T14:23:46.222Z,99.90
2022-11-10T14:26:37.981Z,99.90
2022-11-10T14:29:28.238Z,99.90
2022-11-10T14:31:58.070Z,1.00
2022-11-10T14:34:25.643Z,99.90
2022-11-10T14:36:55.173Z,70.30
2022-11-10T14:39:34.115Z,1.00
2022-11-10T14:42:03.675Z,1.00
2022-11-10T14:44:32.449Z,1.00
2022-11-10T14:47:24.028Z,1.00
2022-11-10T14:50:16.392Z,1.00
2022-11-10T14:52:46.968Z,1.00
2022-11-10T14:55:36.723Z,99.90
2022-11-10T14:58:03.822Z,99.90
2022-11-10T15:00:36.037Z,99.90
2022-11-10T15:03:04.780Z,99.90
2022-11-10T15:05:32.621Z,1.00
2022-11-10T15:08:00.795Z,99.90
2022-11-10T15:10:49.347Z,1.00
2022-11-10T15:13:38.030Z,1.00
2022-11-10T15:16:30.243Z,99.90
2022-11-10T15:19:35.679Z,1.00
2022-11-10T15:22:17.720Z,99.90
2022-11-10T15:24:46.033Z,1.00
2022-11-10T15:27:24.112Z,1.00
2022-11-10T15:29:51.678Z,1.00
2022-11-10T15:32:21.542Z,1.00
2022-11-10T15:34:50.266Z,1.00
2022-11-10T15:37:26.133Z,1.00
2022-11-10T15:40:27.970Z,1.00
2022-11-10T15:43:13.265Z,1.00
2022-11-10T15:45:41.337Z,99.90
2022-11-10T15:48:15.987Z,1.00
2022-11-10T15:50:46.021Z,1.00
2022-11-10T15:53:18.626Z,17.70
2022-11-10T15:55:45.770Z,99.90
2022-11-10T15:58:21.876Z,99.90
2022-11-10T16:00:49.932Z,99.90
2022-11-10T16:03:21.672Z,99.90
2022-11-10T16:05:48.944Z,99.90
2022-11-10T16:08:21.906Z,1.00
2022-11-10T16:10:56.522Z,1.00
2022-11-10T16:13:28.704Z,1.00
2022-11-10T16:15:56.179Z,1.00
2022-11-10T16:18:25.762Z,1.00
2022-11-10T16:20:53.120Z,1.00
2022-11-10T16:23:20.459Z,1.00
2022-11-10T16:25:50.421Z,1.00
2022-11-10T16:28:24.071Z,1.00
2022-11-10T16:30:52.321Z,1.00
2022-11-10T16:33:21.862Z,1.00
2022-11-10T16:35:51.503Z,1.00
2022-11-10T16:38:18.459Z,1.00
2022-11-10T16:40:53.579Z,1.00
2022-11-10T16:43:21.416Z,1.00
2022-11-10T16:45:50.091Z,1.00
2022-11-10T16:48:20.807Z,1.00
2022-11-10T16:50:52.760Z,1.00
2022-11-10T16:53:25.192Z,1.00
2022-11-10T16:55:52.298Z,1.00
2022-11-10T16:58:19.351Z,1.00
2022-11-10T17:00:48.162Z,1.00
2022-11-10T17:03:27.072Z,1.00
2022-11-10T17:05:54.396Z,1.00
2022-11-10T17:08:30.776Z,1.00
2022-11-10T17:10:57.688Z,1.00
2022-11-10T17:13:25.126Z,1.00
2022-11-10T17:16:20.894Z,1.00
2022-11-10T17:18:48.142Z,1.00
2022-11-10T17:21:15.244Z,1.00
2022-11-10T17:23:42.589Z,1.00
2022-11-10T17:26:12.422Z,1.00
2022-11-10T17:28:39.248Z,1.00
2022-11-10T17:31:06.122Z,1.00
2022-11-10T17:33:33.115Z,1.00
2022-11-10T17:36:02.132Z,1.00
2022-11-10T17:38:31.095Z,1.00
2022-11-10T17:40:58.358Z,1.00
2022-11-10T17:43:25.839Z,1.00
2022-11-10T17:45:52.920Z,1.00
2022-11-10T17:48:19.751Z,1.00
2022-11-10T17:50:47.088Z,1.00
2022-11-10T17:53:25.802Z,1.00
2022-11-10T17:55:53.006Z,1.00
2022-11-10T17:58:20.269Z,1.00
2022-11-10T18:00:47.573Z,5.20
2022-11-10T18:03:20.406Z,14.10
2022-11-10T18:05:47.572Z,15.00
2022-11-10T18:08:16.160Z,14.80
2022-11-10T18:10:46.444Z,21.10
2022-11-10T18:13:13.304Z,18.80
2022-11-10T18:15:44.539Z,16.60
2022-11-10T18:18:16.380Z,28.30
2022-11-10T18:20:44.516Z,32.10
2022-11-10T18:23:12.721Z,45.70
2022-11-10T18:25:40.758Z,40.90
2022-11-10T18:28:08.266Z,41.60
2022-11-10T18:30:35.587Z,40.40
2022-11-10T18:33:03.600Z,31.70
2022-11-10T18:35:30.842Z,26.00
2022-11-10T18:38:00.471Z,22.40
2022-11-10T18:40:27.767Z,20.90
2022-11-10T18:43:01.852Z,18.60
2022-11-10T18:45:32.962Z,12.60
2022-11-10T18:48:03.982Z,13.90
2022-11-10T18:50:31.276Z,17.80
2022-11-10T18:52:58.421Z,18.00
2022-11-10T18:55:26.335Z,20.90
2022-11-10T18:57:53.200Z,21.20
2022-11-10T19:00:20.525Z,24.10
2022-11-10T19:02:47.744Z,23.50
2022-11-10T19:05:14.630Z,27.00
2022-11-10T19:07:42.190Z,28.80
2022-11-10T19:10:09.124Z,28.10
2022-11-10T19:12:36.007Z,28.10
2022-11-10T19:15:02.869Z,27.50
2022-11-10T19:17:29.703Z,29.20
2022-11-10T19:19:57.014Z,36.70
2022-11-10T19:22:24.277Z,41.60
2022-11-10T19:25:07.472Z,42.00
2022-11-10T19:27:34.987Z,41.20
2022-11-10T19:30:01.875Z,42.80
2022-11-10T19:32:29.718Z,48.10
2022-11-10T19:34:56.595Z,47.10
2022-11-10T19:37:23.435Z,51.70
2022-11-10T19:39:50.279Z,52.70
2022-11-10T19:42:17.186Z,54.40
2022-11-10T19:44:44.006Z,51.70
2022-11-10T19:47:10.826Z,45.20
2022-11-10T19:49:38.768Z,43.20
2022-11-10T19:52:05.730Z,44.70
2022-11-10T19:54:32.524Z,54.30
2022-11-10T19:56:59.503Z,62.20
2022-11-10T19:59:26.311Z,54.60
2022-11-10T20:01:53.968Z,55.30
2022-11-10T20:04:20.901Z,59.80
2022-11-10T20:06:47.915Z,76.70
2022-11-10T20:09:14.792Z,84.70
2022-11-10T20:11:41.701Z,89.60
2022-11-10T20:14:08.503Z,90.40
2022-11-10T20:16:35.326Z,82.70
2022-11-10T20:19:02.250Z,93.90
2022-11-10T20:21:29.167Z,96.50
2022-11-10T20:23:56.898Z,94.70
2022-11-10T20:26:24.652Z,95.30
2022-11-10T20:28:51.568Z,96.30
2022-11-10T20:31:24.433Z,96.70
2022-11-10T20:33:53.031Z,99.90
2022-11-10T20:36:26.294Z,99.90
2022-11-10T20:38:56.838Z,99.90
2022-11-10T20:41:26.568Z,99.90
2022-11-10T20:43:53.485Z,99.90
2022-11-10T20:46:48.200Z,99.90
2022-11-10T20:49:08.593Z,99.90
2022-11-10T20:51:35.494Z,99.90
2022-11-10T20:54:02.641Z,99.90
2022-11-10T20:56:30.275Z,99.90
2022-11-10T20:58:58.216Z,99.90
2022-11-10T21:01:25.677Z,99.90
2022-11-10T21:03:52.808Z,99.90
2022-11-10T21:06:19.841Z,99.90
2022-11-10T21:08:46.704Z,99.90
2022-11-10T21:11:33.732Z,99.90
2022-11-10T21:14:01.588Z,99.90
2022-11-10T21:16:28.773Z,99.90
2022-11-10T21:18:56.682Z,99.90
2022-11-10T21:21:27.993Z,99.90
2022-11-10T21:23:57.443Z,99.90
2022-11-10T21:26:24.741Z,99.90
2022-11-10T21:28:51.764Z,99.90
2022-11-10T21:31:18.766Z,99.90
2022-11-10T21:33:45.689Z,99.90
2022-11-10T21:36:12.528Z,99.90
2022-11-10T21:38:39.386Z,99.90
2022-11-10T21:41:06.302Z,99.90
2022-11-10T21:43:33.151Z,99.90
2022-11-10T21:46:04.015Z,99.90
2022-11-10T21:48:30.876Z,99.90
2022-11-10T21:51:01.402Z,99.90
2022-11-10T21:53:28.576Z,99.90
2022-11-10T21:56:04.431Z,99.90
2022-11-10T21:58:33.512Z,99.90
2022-11-10T22:01:02.166Z,99.90
2022-11-10T22:03:29.918Z,99.90
2022-11-10T22:06:02.573Z,99.90
2022-11-10T22:08:29.429Z,99.90
2022-11-10T22:11:14.889Z,99.90
2022-11-10T22:14:00.426Z,99.90
2022-11-10T22:16:51.039Z,99.90
2022-11-10T22:19:18.305Z,99.90
2022-11-10T22:21:45.152Z,99.90
2022-11-10T22:24:24.690Z,99.90
2022-11-10T22:26:51.592Z,99.90
2022-11-10T22:29:18.474Z,99.90
2022-11-10T22:31:45.482Z,99.90
2022-11-10T22:34:12.316Z,99.90
2022-11-10T22:36:39.234Z,99.90
2022-11-10T22:39:06.600Z,99.90
2022-11-10T22:41:52.232Z,99.90
2022-11-10T22:44:23.775Z,99.90
2022-11-10T22:46:52.301Z,99.90
2022-11-10T22:49:22.918Z,99.90
2022-11-10T22:51:52.222Z,99.90
2022-11-10T22:54:20.889Z,99.90
2022-11-10T22:56:48.365Z,99.90
2022-11-10T22:59:15.819Z,99.90
2022-11-10T23:01:43.857Z,99.90
2022-11-10T23:04:11.456Z,99.90
2022-11-10T23:06:38.482Z,99.90
2022-11-10T23:09:06.051Z,99.90
2022-11-10T23:11:33.631Z,99.90
2022-11-10T23:14:00.580Z,99.90
2022-11-10T23:16:33.708Z,99.90
2022-11-10T23:19:01.139Z,99.90
2022-11-10T23:21:30.454Z,99.90
2022-11-10T23:23:57.620Z,99.90
2022-11-10T23:26:30.235Z,99.90
2022-11-10T23:28:57.208Z,99.90
2022-11-10T23:31:26.475Z,99.90
2022-11-10T23:33:55.880Z,99.90
2022-11-10T23:36:24.940Z,99.90
2022-11-10T23:38:52.433Z,99.90
2022-11-10T23:41:23.463Z,99.90
2022-11-10T23:43:50.606Z,99.90
2022-11-10T23:46:17.531Z,99.90
2022-11-10T23:48:44.555Z,99.90
2022-11-10T23:51:13.836Z,99.90
2022-11-10T23:53:40.889Z,99.90
2022-11-10T23:56:11.949Z,99.90
2022-11-10T23:58:38.816Z,99.90
